createdAt,value
2023-05-02T00:02:32.543Z,95758.50
2023-05-02T00:07:35.036Z,95755.53
2023-05-02T00:12:37.419Z,95753.91
2023-05-02T00:17:39.776Z,95748.53
2023-05-02T00:22:42.176Z,95755.47
2023-05-02T00:27:46.596Z,95759.75
2023-05-02T00:32:49.349Z,95753.56
2023-05-02T00:37:51.725Z,95754.34
2023-05-02T00:42:54.087Z,95746.28
2023-05-02T00:47:57.023Z,95739.81
2023-05-02T00:52:59.457Z,95743.50
2023-05-02T00:58:01.770Z,95746.69
2023-05-02T01:03:04.223Z,95744.16
2023-05-02T01:08:06.610Z,95754.56
2023-05-02T01:13:08.988Z,95754.81
2023-05-02T01:18:11.333Z,95755.03
2023-05-02T01:23:14.024Z,95752.34
2023-05-02T01:28:16.376Z,95764.13
2023-05-02T01:33:18.995Z,95764.66
2023-05-02T01:38:21.337Z,95764.09
2023-05-02T01:43:23.661Z,95761.72
2023-05-02T01:48:26.368Z,95760.63
2023-05-02T01:53:28.821Z,95761.41
2023-05-02T01:58:31.201Z,95764.09
2023-05-02T02:03:33.586Z,95769.44
2023-05-02T02:08:36.023Z,95774.28
2023-05-02T02:13:38.352Z,95783.88
2023-05-02T02:18:41.279Z,95776.94
2023-05-02T02:23:43.756Z,95782.84
2023-05-02T02:28:46.322Z,95789.25
2023-05-02T02:33:49.053Z,95785.03
2023-05-02T02:38:51.740Z,95801.56
2023-05-02T02:43:54.525Z,95801.34
2023-05-02T02:48:57.228Z,95796.28
2023-05-02T02:53:59.651Z,95792.53
2023-05-02T02:59:01.948Z,95792.53
2023-05-02T03:04:04.369Z,95808.03
2023-05-02T03:09:07.299Z,95803.81
2023-05-02T03:14:09.620Z,95814.75
2023-05-02T03:19:11.970Z,95811.25
2023-05-02T03:24:17.107Z,95825.41
2023-05-02T03:29:20.890Z,95815.66
2023-05-02T03:34:23.586Z,95815.88
2023-05-02T03:39:25.965Z,95820.59
2023-05-02T03:44:28.310Z,95828.03
2023-05-02T03:49:30.650Z,95827.91
2023-05-02T03:54:33.194Z,95827.88
2023-05-02T03:59:35.782Z,95836.41
2023-05-02T04:04:38.345Z,95842.75
2023-05-02T04:09:40.860Z,95856.66
2023-05-02T04:14:43.592Z,95853.56
2023-05-02T04:19:46.101Z,95858.16
2023-05-02T04:24:48.489Z,95862.28
2023-05-02T04:29:51.847Z,95866.19
2023-05-02T04:34:54.662Z,95878.09
2023-05-02T04:39:57.366Z,95876.09
2023-05-02T04:44:59.831Z,95882.63
2023-05-02T04:50:02.929Z,95884.91
2023-05-02T04:55:05.473Z,95897.56
2023-05-02T05:00:08.201Z,95908.66
2023-05-02T05:05:10.897Z,95899.66
2023-05-02T05:10:13.851Z,95911.53
2023-05-02T05:15:16.714Z,95906.53
2023-05-02T05:20:19.937Z,95910.63
2023-05-02T05:25:22.895Z,95912.28
2023-05-02T05:30:25.456Z,95916.63
2023-05-02T05:35:28.835Z,95920.97
2023-05-02T05:40:31.532Z,95925.28
2023-05-02T05:45:34.356Z,95926.94
2023-05-02T05:50:36.913Z,95936.59
2023-05-02T05:55:41.567Z,95950.59
2023-05-02T06:00:44.939Z,95950.63
2023-05-02T06:05:47.697Z,95950.09
2023-05-02T06:10:50.411Z,95952.81
2023-05-02T06:15:53.105Z,95955.75
2023-05-02T06:20:55.604Z,95960.56
2023-05-02T06:25:58.550Z,95964.78
2023-05-02T06:31:01.697Z,95972.06
2023-05-02T06:36:04.618Z,95971.13
2023-05-02T06:41:07.533Z,95977.47
2023-05-02T06:46:10.252Z,95975.72
2023-05-02T06:51:13.156Z,95981.06
2023-05-02T06:56:15.968Z,95980.81
2023-05-02T07:01:18.732Z,95996.16
2023-05-02T07:06:21.859Z,95988.09
2023-05-02T07:11:25.220Z,95989.31
2023-05-02T07:16:27.585Z,95988.25
2023-05-02T07:21:30.453Z,95990.16
2023-05-02T07:26:32.965Z,95991.41
2023-05-02T07:31:35.888Z,96002.03
2023-05-02T07:36:38.769Z,95998.09
2023-05-02T07:41:41.471Z,95995.63
2023-05-02T07:46:44.430Z,95997.63
2023-05-02T07:51:47.450Z,96000.25
2023-05-02T07:56:50.362Z,96006.75
2023-05-02T08:01:53.245Z,96004.59
2023-05-02T08:06:56.368Z,96005.72
2023-05-02T08:11:59.327Z,96015.34
2023-05-02T08:17:02.053Z,96007.38
2023-05-02T08:22:04.773Z,96010.75
2023-05-02T08:27:08.030Z,96008.97
2023-05-02T08:32:11.018Z,96010.66
2023-05-02T08:37:13.544Z,96015.34
2023-05-02T08:42:16.233Z,96012.63
2023-05-02T08:47:18.957Z,96017.31
2023-05-02T08:52:21.826Z,96024.81
2023-05-02T08:57:24.626Z,96021.81
2023-05-02T09:02:27.714Z,96017.78
2023-05-02T09:07:30.932Z,96029.16
2023-05-02T09:12:33.639Z,96024.72
2023-05-02T09:17:36.542Z,96032.47
2023-05-02T09:22:39.409Z,96033.88
2023-05-02T09:27:42.166Z,96036.53
2023-05-02T09:32:45.269Z,96044.09
2023-05-02T09:37:48.115Z,96040.09
2023-05-02T09:42:50.960Z,96044.16
2023-05-02T09:47:54.082Z,96048.69
2023-05-02T09:52:56.663Z,96043.06
2023-05-02T09:57:59.506Z,96040.66
2023-05-02T10:03:03.350Z,96045.53
2023-05-02T10:08:05.750Z,96039.41
2023-05-02T10:13:08.748Z,96051.03
2023-05-02T10:18:13.211Z,96047.28
2023-05-02T10:23:15.753Z,96047.03
2023-05-02T10:28:18.111Z,96041.78
2023-05-02T10:33:20.656Z,96045.50
2023-05-02T10:38:24.798Z,96041.97
2023-05-02T10:43:27.572Z,96032.44
2023-05-02T10:48:30.342Z,96039.19
2023-05-02T10:53:33.211Z,96040.91
2023-05-02T10:58:35.923Z,96054.03
2023-05-02T11:03:38.612Z,96057.72
2023-05-02T11:08:42.485Z,96053.00
2023-05-02T11:13:45.080Z,96063.69
2023-05-02T11:18:47.889Z,96065.53
2023-05-02T11:23:50.878Z,96076.81
2023-05-02T11:28:53.718Z,96073.84
2023-05-02T11:33:56.517Z,96067.28
2023-05-02T11:38:59.306Z,96067.94
2023-05-02T11:44:02.284Z,96071.03
2023-05-02T11:49:07.015Z,96071.41
2023-05-02T11:54:11.605Z,96058.13
2023-05-02T11:59:14.422Z,96058.34
2023-05-02T12:04:21.788Z,96059.75
2023-05-02T12:09:24.280Z,96058.47
2023-05-02T12:14:26.791Z,96066.34
2023-05-02T12:19:29.511Z,96059.84
2023-05-02T12:24:32.243Z,96051.44
2023-05-02T12:29:34.934Z,96048.59
2023-05-02T12:34:37.893Z,96052.50
2023-05-02T12:39:40.924Z,96055.50
2023-05-02T12:44:43.556Z,96052.22
2023-05-02T12:49:45.929Z,96067.34
2023-05-02T12:54:48.736Z,96057.97
2023-05-02T12:59:51.096Z,96056.81
2023-05-02T13:04:54.378Z,96048.06
2023-05-02T13:09:57.209Z,96049.91
2023-05-02T13:15:00.371Z,96048.00
2023-05-02T13:20:04.031Z,96058.00
2023-05-02T13:25:07.084Z,96059.03
2023-05-02T13:30:10.202Z,96058.16
2023-05-02T13:35:14.367Z,96057.00
2023-05-02T13:40:16.986Z,96061.75
2023-05-02T13:45:19.579Z,96060.00
2023-05-02T13:50:22.060Z,96065.81
2023-05-02T13:55:24.473Z,96101.53
2023-05-02T14:00:28.858Z,96123.56
2023-05-02T14:05:31.249Z,96125.38
2023-05-02T14:10:33.945Z,96131.91
2023-05-02T14:15:37.551Z,96144.81
2023-05-02T14:20:40.212Z,96151.59
2023-05-02T14:25:42.595Z,96152.97
2023-05-02T14:30:45.339Z,96147.66
2023-05-02T14:35:47.631Z,96143.53
2023-05-02T14:40:50.340Z,96142.88
2023-05-02T14:45:53.186Z,96138.91
2023-05-02T14:50:56.968Z,96139.75
2023-05-02T14:55:59.426Z,96128.13
2023-05-02T15:01:02.194Z,96112.09
2023-05-02T15:06:04.887Z,96113.41
2023-05-02T15:11:07.598Z,96118.59
2023-05-02T15:16:10.376Z,96108.72
2023-05-02T15:21:12.806Z,96108.38
2023-05-02T15:26:15.247Z,96102.22
2023-05-02T15:31:18.261Z,96101.44
2023-05-02T15:36:20.727Z,96087.38
2023-05-02T15:41:24.003Z,96100.22
2023-05-02T15:46:26.422Z,96095.94
2023-05-02T15:51:29.484Z,96090.22
2023-05-02T15:56:32.520Z,96105.22
2023-05-02T16:01:35.325Z,96109.50
2023-05-02T16:12:05.373Z,96123.69
2023-05-02T16:17:07.829Z,96134.13
2023-05-02T16:22:10.557Z,96154.22
2023-05-02T16:27:12.951Z,96166.16
2023-05-02T16:32:15.339Z,96176.69
2023-05-02T16:37:17.708Z,96198.13
2023-05-02T16:42:20.251Z,96213.78
2023-05-02T16:47:22.593Z,96243.63
2023-05-02T16:52:24.933Z,96265.34
2023-05-02T16:57:27.502Z,96286.88
2023-05-02T17:02:29.910Z,96283.19
2023-05-02T17:07:32.638Z,96292.47
2023-05-02T17:12:35.572Z,96289.50
2023-05-02T17:17:37.930Z,96290.72
2023-05-02T17:22:41.519Z,96287.25
2023-05-02T17:27:43.862Z,96261.84
2023-05-02T17:32:46.499Z,96269.16
2023-05-02T17:37:48.899Z,96268.31
2023-05-02T17:42:51.330Z,96262.47
2023-05-02T17:47:53.765Z,96272.38
2023-05-02T17:52:56.282Z,96278.06
2023-05-02T17:57:59.409Z,96278.94
2023-05-02T18:09:09.578Z,96296.56
2023-05-02T18:14:14.566Z,96296.81
2023-05-02T18:19:19.904Z,96294.66
2023-05-02T18:24:28.747Z,96301.91
2023-05-02T18:29:40.638Z,96307.47
2023-05-02T18:34:46.478Z,96312.19
2023-05-02T18:39:54.016Z,96320.34
2023-05-02T18:45:08.573Z,96323.97
2023-05-02T18:50:15.577Z,96331.59
2023-05-02T18:55:25.282Z,96343.22
2023-05-02T19:00:30.962Z,96351.19
2023-05-02T19:05:38.024Z,96351.94
2023-05-02T19:10:42.350Z,96348.09
2023-05-02T19:15:46.942Z,96337.63
2023-05-02T19:20:51.719Z,96355.16
2023-05-02T19:25:57.425Z,96354.22
2023-05-02T19:31:03.121Z,96355.16
2023-05-02T19:36:11.336Z,96359.94
2023-05-02T19:41:18.673Z,96366.53
2023-05-02T19:46:23.528Z,96365.06
2023-05-02T19:51:31.712Z,96380.41
2023-05-02T19:56:39.163Z,96378.69
2023-05-02T20:07:57.282Z,96381.28
2023-05-02T20:13:01.802Z,96391.28
2023-05-02T20:18:07.293Z,96390.81
2023-05-02T20:23:12.035Z,96392.69
2023-05-02T20:28:25.778Z,96404.44
2023-05-02T20:33:43.757Z,96396.72
2023-05-02T20:38:49.200Z,96399.19
2023-05-02T20:43:56.014Z,96397.69
2023-05-02T20:49:03.239Z,96403.19
2023-05-02T20:54:06.356Z,96398.19
2023-05-02T20:59:11.067Z,96397.63
2023-05-02T21:10:01.295Z,96394.97
2023-05-02T21:15:17.630Z,96395.91
2023-05-02T21:20:29.305Z,96391.88
2023-05-02T21:25:35.270Z,96392.81
2023-05-02T21:30:38.653Z,96392.47
2023-05-02T21:41:57.898Z,96383.06
2023-05-02T21:47:08.335Z,96389.91
2023-05-02T21:52:12.114Z,96383.06
2023-05-02T21:57:15.648Z,96379.72
2023-05-02T22:02:18.564Z,96376.22
2023-05-02T22:07:36.541Z,96384.69
2023-05-02T22:12:44.111Z,96384.63
2023-05-02T22:17:48.639Z,96384.69
2023-05-02T22:22:55.242Z,96381.13
2023-05-02T22:28:01.720Z,96387.03
2023-05-02T22:33:09.469Z,96382.28
2023-05-02T22:38:17.972Z,96391.94
2023-05-02T22:43:22.701Z,96396.09
2023-05-02T22:48:26.503Z,96396.09
2023-05-02T22:53:31.023Z,96392.50
2023-05-02T22:58:36.223Z,96397.16
2023-05-02T23:03:40.397Z,96393.44
2023-05-02T23:08:44.884Z,96391.94
2023-05-02T23:13:50.100Z,96386.59
2023-05-02T23:18:55.057Z,96387.75
2023-05-02T23:24:00.871Z,96382.28
2023-05-02T23:29:10.176Z,96386.22
2023-05-02T23:34:14.346Z,96384.84
2023-05-02T23:39:21.746Z,96385.88
2023-05-02T23:44:29.769Z,96379.84
2023-05-02T23:49:37.304Z,96382.25
2023-05-02T23:54:42.898Z,96378.22
2023-05-02T23:59:46.384Z,96378.41
